sensor_id;sensor_type;location;lat;lon;timestamp;P1;durP1;ratioP1;P2;durP2;ratioP2
65418;SDS011;52027;50.658;14.004;2022-09-16T00:01:22;3.58;;;2.10;;
65418;SDS011;52027;50.658;14.004;2022-09-16T00:03:48;4.50;;;2.20;;
65418;SDS011;52027;50.658;14.004;2022-09-16T00:06:24;4.72;;;2.40;;
65418;SDS011;52027;50.658;14.004;2022-09-16T00:08:52;5.32;;;2.20;;
65418;SDS011;52027;50.658;14.004;2022-09-16T00:11:22;4.50;;;2.25;;
65418;SDS011;52027;50.658;14.004;2022-09-16T00:13:48;3.35;;;2.15;;
65418;SDS011;52027;50.658;14.004;2022-09-16T00:16:17;3.97;;;2.20;;
65418;SDS011;52027;50.658;14.004;2022-09-16T00:18:45;3.63;;;2.20;;
65418;SDS011;52027;50.658;14.004;2022-09-16T00:21:11;3.55;;;2.00;;
65418;SDS011;52027;50.658;14.004;2022-09-16T00:23:36;4.00;;;2.28;;
65418;SDS011;52027;50.658;14.004;2022-09-16T00:26:02;4.32;;;2.40;;
65418;SDS011;52027;50.658;14.004;2022-09-16T00:28:28;3.40;;;2.00;;
65418;SDS011;52027;50.658;14.004;2022-09-16T00:30:58;4.25;;;2.10;;
65418;SDS011;52027;50.658;14.004;2022-09-16T00:33:24;3.35;;;2.17;;
65418;SDS011;52027;50.658;14.004;2022-09-16T00:35:50;4.40;;;2.10;;
65418;SDS011;52027;50.658;14.004;2022-09-16T00:38:15;3.33;;;2.05;;
65418;SDS011;52027;50.658;14.004;2022-09-16T00:40:44;4.68;;;2.20;;
65418;SDS011;52027;50.658;14.004;2022-09-16T00:43:14;4.03;;;2.35;;
65418;SDS011;52027;50.658;14.004;2022-09-16T00:45:42;4.55;;;2.20;;
65418;SDS011;52027;50.658;14.004;2022-09-16T00:48:10;3.90;;;1.98;;
65418;SDS011;52027;50.658;14.004;2022-09-16T00:50:42;3.60;;;2.05;;
65418;SDS011;52027;50.658;14.004;2022-09-16T00:53:16;3.10;;;2.10;;
65418;SDS011;52027;50.658;14.004;2022-09-16T00:55:49;4.25;;;2.05;;
65418;SDS011;52027;50.658;14.004;2022-09-16T00:58:24;3.47;;;1.98;;
65418;SDS011;52027;50.658;14.004;2022-09-16T01:00:54;3.25;;;2.00;;
65418;SDS011;52027;50.658;14.004;2022-09-16T01:03:19;3.40;;;2.00;;
65418;SDS011;52027;50.658;14.004;2022-09-16T01:05:45;3.05;;;1.90;;
65418;SDS011;52027;50.658;14.004;2022-09-16T01:08:11;3.60;;;2.17;;
65418;SDS011;52027;50.658;14.004;2022-09-16T01:10:37;3.20;;;1.90;;
65418;SDS011;52027;50.658;14.004;2022-09-16T01:13:06;3.33;;;1.92;;
65418;SDS011;52027;50.658;14.004;2022-09-16T01:15:49;3.63;;;2.20;;
65418;SDS011;52027;50.658;14.004;2022-09-16T01:21:25;3.20;;;2.05;;
65418;SDS011;52027;50.658;14.004;2022-09-16T01:31:56;3.33;;;2.00;;
65418;SDS011;52027;50.658;14.004;2022-09-16T01:37:16;3.67;;;2.03;;
65418;SDS011;52027;50.658;14.004;2022-09-16T01:50:52;3.55;;;1.90;;
65418;SDS011;52027;50.658;14.004;2022-09-16T01:53:36;3.28;;;1.92;;
65418;SDS011;52027;50.658;14.004;2022-09-16T01:56:11;4.60;;;1.98;;
65418;SDS011;52027;50.658;14.004;2022-09-16T01:58:46;3.47;;;1.92;;
65418;SDS011;52027;50.658;14.004;2022-09-16T02:01:18;3.83;;;2.08;;
65418;SDS011;52027;50.658;14.004;2022-09-16T02:03:50;3.90;;;2.20;;
65418;SDS011;52027;50.658;14.004;2022-09-16T02:06:22;3.10;;;1.90;;
65418;SDS011;52027;50.658;14.004;2022-09-16T02:08:53;3.20;;;1.80;;
65418;SDS011;52027;50.658;14.004;2022-09-16T02:11:22;3.50;;;2.10;;
65418;SDS011;52027;50.658;14.004;2022-09-16T02:14:05;3.42;;;1.90;;
65418;SDS011;52027;50.658;14.004;2022-09-16T02:16:42;3.47;;;1.90;;
65418;SDS011;52027;50.658;14.004;2022-09-16T02:19:14;3.05;;;1.83;;
65418;SDS011;52027;50.658;14.004;2022-09-16T02:21:44;4.38;;;2.08;;
65418;SDS011;52027;50.658;14.004;2022-09-16T02:24:12;3.70;;;2.10;;
65418;SDS011;52027;50.658;14.004;2022-09-16T02:26:43;3.55;;;2.10;;
65418;SDS011;52027;50.658;14.004;2022-09-16T02:29:14;3.47;;;1.90;;
65418;SDS011;52027;50.658;14.004;2022-09-16T02:31:47;3.35;;;1.88;;
65418;SDS011;52027;50.658;14.004;2022-09-16T02:34:15;3.50;;;2.00;;
65418;SDS011;52027;50.658;14.004;2022-09-16T02:36:47;3.70;;;1.88;;
65418;SDS011;52027;50.658;14.004;2022-09-16T02:39:19;3.50;;;1.92;;
65418;SDS011;52027;50.658;14.004;2022-09-16T02:41:50;3.25;;;2.00;;
65418;SDS011;52027;50.658;14.004;2022-09-16T02:44:15;3.35;;;1.80;;
65418;SDS011;52027;50.658;14.004;2022-09-16T02:46:56;3.60;;;1.80;;
65418;SDS011;52027;50.658;14.004;2022-09-16T02:54:50;3.05;;;1.83;;
65418;SDS011;52027;50.658;14.004;2022-09-16T02:57:20;3.50;;;1.90;;
65418;SDS011;52027;50.658;14.004;2022-09-16T02:59:46;3.38;;;1.95;;
65418;SDS011;52027;50.658;14.004;2022-09-16T03:02:11;3.15;;;1.73;;
65418;SDS011;52027;50.658;14.004;2022-09-16T03:04:36;3.20;;;1.92;;
65418;SDS011;52027;50.658;14.004;2022-09-16T03:07:02;3.65;;;1.70;;
65418;SDS011;52027;50.658;14.004;2022-09-16T03:09:30;4.75;;;2.10;;
65418;SDS011;52027;50.658;14.004;2022-09-16T03:31:46;3.13;;;1.77;;
65418;SDS011;52027;50.658;14.004;2022-09-16T03:34:28;3.00;;;1.77;;
65418;SDS011;52027;50.658;14.004;2022-09-16T03:36:58;3.35;;;1.80;;
65418;SDS011;52027;50.658;14.004;2022-09-16T03:39:27;3.38;;;1.70;;
65418;SDS011;52027;50.658;14.004;2022-09-16T03:41:54;3.22;;;1.70;;
65418;SDS011;52027;50.658;14.004;2022-09-16T03:44:32;4.35;;;1.77;;
65418;SDS011;52027;50.658;14.004;2022-09-16T03:46:58;4.18;;;1.70;;
65418;SDS011;52027;50.658;14.004;2022-09-16T03:49:24;3.67;;;1.88;;
65418;SDS011;52027;50.658;14.004;2022-09-16T03:51:49;3.03;;;1.80;;
65418;SDS011;52027;50.658;14.004;2022-09-16T03:54:14;3.47;;;1.80;;
65418;SDS011;52027;50.658;14.004;2022-09-16T03:56:40;3.88;;;1.90;;
65418;SDS011;52027;50.658;14.004;2022-09-16T03:59:05;4.78;;;1.70;;
65418;SDS011;52027;50.658;14.004;2022-09-16T04:01:30;3.00;;;1.67;;
65418;SDS011;52027;50.658;14.004;2022-09-16T04:03:56;4.78;;;1.70;;
65418;SDS011;52027;50.658;14.004;2022-09-16T04:06:21;4.30;;;1.73;;
65418;SDS011;52027;50.658;14.004;2022-09-16T04:08:47;4.28;;;1.85;;
65418;SDS011;52027;50.658;14.004;2022-09-16T04:11:14;3.42;;;1.70;;
65418;SDS011;52027;50.658;14.004;2022-09-16T04:13:40;2.90;;;1.85;;
65418;SDS011;52027;50.658;14.004;2022-09-16T04:16:05;2.88;;;1.83;;
65418;SDS011;52027;50.658;14.004;2022-09-16T04:18:31;2.85;;;1.70;;
65418;SDS011;52027;50.658;14.004;2022-09-16T04:20:58;3.97;;;1.80;;
65418;SDS011;52027;50.658;14.004;2022-09-16T04:23:24;3.03;;;1.80;;
65418;SDS011;52027;50.658;14.004;2022-09-16T04:25:54;3.15;;;1.70;;
65418;SDS011;52027;50.658;14.004;2022-09-16T04:28:21;4.10;;;1.80;;
65418;SDS011;52027;50.658;14.004;2022-09-16T04:30:46;3.55;;;1.70;;
65418;SDS011;52027;50.658;14.004;2022-09-16T04:33:12;3.40;;;1.95;;
65418;SDS011;52027;50.658;14.004;2022-09-16T04:35:37;4.25;;;1.70;;
65418;SDS011;52027;50.658;14.004;2022-09-16T04:38:02;4.15;;;1.90;;
65418;SDS011;52027;50.658;14.004;2022-09-16T04:40:28;2.83;;;1.65;;
65418;SDS011;52027;50.658;14.004;2022-09-16T04:42:53;4.82;;;1.90;;
65418;SDS011;52027;50.658;14.004;2022-09-16T04:45:18;2.75;;;1.70;;
65418;SDS011;52027;50.658;14.004;2022-09-16T04:47:44;3.90;;;1.70;;
65418;SDS011;52027;50.658;14.004;2022-09-16T04:50:09;4.82;;;2.00;;
65418;SDS011;52027;50.658;14.004;2022-09-16T04:52:35;3.83;;;1.70;;
65418;SDS011;52027;50.658;14.004;2022-09-16T04:55:00;4.57;;;1.80;;
65418;SDS011;52027;50.658;14.004;2022-09-16T04:57:29;4.40;;;1.50;;
65418;SDS011;52027;50.658;14.004;2022-09-16T04:59:56;7.85;;;2.15;;
65418;SDS011;52027;50.658;14.004;2022-09-16T05:02:21;5.57;;;1.67;;
65418;SDS011;52027;50.658;14.004;2022-09-16T05:04:50;4.40;;;1.63;;
65418;SDS011;52027;50.658;14.004;2022-09-16T05:07:28;3.85;;;1.77;;
65418;SDS011;52027;50.658;14.004;2022-09-16T05:09:54;3.85;;;1.50;;
65418;SDS011;52027;50.658;14.004;2022-09-16T05:12:19;10.73;;;1.95;;
65418;SDS011;52027;50.658;14.004;2022-09-16T05:14:45;3.70;;;1.75;;
65418;SDS011;52027;50.658;14.004;2022-09-16T05:17:10;6.22;;;1.83;;
65418;SDS011;52027;50.658;14.004;2022-09-16T05:19:36;5.53;;;2.28;;
65418;SDS011;52027;50.658;14.004;2022-09-16T05:22:01;4.50;;;1.80;;
65418;SDS011;52027;50.658;14.004;2022-09-16T05:24:32;7.00;;;1.92;;
65418;SDS011;52027;50.658;14.004;2022-09-16T05:26:59;6.65;;;2.00;;
65418;SDS011;52027;50.658;14.004;2022-09-16T05:29:24;9.65;;;2.25;;
65418;SDS011;52027;50.658;14.004;2022-09-16T05:31:49;4.63;;;1.98;;
65418;SDS011;52027;50.658;14.004;2022-09-16T05:34:16;10.35;;;2.30;;
65418;SDS011;52027;50.658;14.004;2022-09-16T05:36:43;6.95;;;2.08;;
65418;SDS011;52027;50.658;14.004;2022-09-16T05:39:11;6.07;;;1.90;;
65418;SDS011;52027;50.658;14.004;2022-09-16T05:41:37;10.82;;;2.22;;
65418;SDS011;52027;50.658;14.004;2022-09-16T05:44:03;9.15;;;2.17;;
65418;SDS011;52027;50.658;14.004;2022-09-16T05:46:28;8.25;;;1.95;;
65418;SDS011;52027;50.658;14.004;2022-09-16T05:48:54;8.10;;;2.15;;
65418;SDS011;52027;50.658;14.004;2022-09-16T05:51:20;16.63;;;2.55;;
65418;SDS011;52027;50.658;14.004;2022-09-16T05:53:48;12.57;;;2.15;;
65418;SDS011;52027;50.658;14.004;2022-09-16T05:56:18;10.88;;;2.58;;
65418;SDS011;52027;50.658;14.004;2022-09-16T05:58:51;6.57;;;1.90;;
65418;SDS011;52027;50.658;14.004;2022-09-16T06:01:19;11.13;;;1.92;;
65418;SDS011;52027;50.658;14.004;2022-09-16T06:03:52;9.60;;;2.10;;
65418;SDS011;52027;50.658;14.004;2022-09-16T06:08:49;9.68;;;2.25;;
65418;SDS011;52027;50.658;14.004;2022-09-16T06:11:16;9.57;;;2.15;;
65418;SDS011;52027;50.658;14.004;2022-09-16T06:13:42;9.40;;;2.17;;
65418;SDS011;52027;50.658;14.004;2022-09-16T06:16:10;10.85;;;2.10;;
65418;SDS011;52027;50.658;14.004;2022-09-16T06:18:38;10.05;;;2.38;;
65418;SDS011;52027;50.658;14.004;2022-09-16T06:21:08;8.90;;;2.10;;
65418;SDS011;52027;50.658;14.004;2022-09-16T06:23:35;11.65;;;2.58;;
65418;SDS011;52027;50.658;14.004;2022-09-16T06:26:02;13.25;;;2.28;;
65418;SDS011;52027;50.658;14.004;2022-09-16T06:28:29;10.55;;;2.35;;
65418;SDS011;52027;50.658;14.004;2022-09-16T06:31:02;11.45;;;2.58;;
65418;SDS011;52027;50.658;14.004;2022-09-16T06:33:35;7.35;;;2.42;;
65418;SDS011;52027;50.658;14.004;2022-09-16T06:36:11;10.57;;;2.40;;
65418;SDS011;52027;50.658;14.004;2022-09-16T06:38:38;9.77;;;2.50;;
65418;SDS011;52027;50.658;14.004;2022-09-16T06:41:06;11.23;;;2.47;;
65418;SDS011;52027;50.658;14.004;2022-09-16T06:43:33;11.57;;;2.80;;
65418;SDS011;52027;50.658;14.004;2022-09-16T06:46:21;14.65;;;2.40;;
65418;SDS011;52027;50.658;14.004;2022-09-16T06:48:49;9.77;;;2.40;;
65418;SDS011;52027;50.658;14.004;2022-09-16T06:51:20;11.88;;;2.40;;
65418;SDS011;52027;50.658;14.004;2022-09-16T06:53:48;9.20;;;2.38;;
65418;SDS011;52027;50.658;14.004;2022-09-16T06:56:15;18.30;;;2.50;;
65418;SDS011;52027;50.658;14.004;2022-09-16T06:58:42;12.75;;;2.40;;
65418;SDS011;52027;50.658;14.004;2022-09-16T07:01:12;15.82;;;2.40;;
65418;SDS011;52027;50.658;14.004;2022-09-16T07:03:43;11.70;;;2.20;;
65418;SDS011;52027;50.658;14.004;2022-09-16T07:06:10;14.88;;;2.40;;
65418;SDS011;52027;50.658;14.004;2022-09-16T07:08:37;15.10;;;2.20;;
65418;SDS011;52027;50.658;14.004;2022-09-16T07:13:28;10.98;;;2.10;;
65418;SDS011;52027;50.658;14.004;2022-09-16T07:15:57;17.38;;;2.45;;
65418;SDS011;52027;50.658;14.004;2022-09-16T07:18:27;12.18;;;2.50;;
65418;SDS011;52027;50.658;14.004;2022-09-16T07:23:32;17.85;;;2.47;;
65418;SDS011;52027;50.658;14.004;2022-09-16T07:26:00;13.48;;;2.50;;
65418;SDS011;52027;50.658;14.004;2022-09-16T07:28:26;21.33;;;2.58;;
65418;SDS011;52027;50.658;14.004;2022-09-16T07:30:52;19.13;;;2.60;;
65418;SDS011;52027;50.658;14.004;2022-09-16T07:33:17;16.15;;;2.85;;
65418;SDS011;52027;50.658;14.004;2022-09-16T07:35:42;42.63;;;4.15;;
65418;SDS011;52027;50.658;14.004;2022-09-16T07:38:08;30.60;;;3.28;;
65418;SDS011;52027;50.658;14.004;2022-09-16T07:40:33;29.70;;;3.28;;
65418;SDS011;52027;50.658;14.004;2022-09-16T07:42:58;23.30;;;3.25;;
65418;SDS011;52027;50.658;14.004;2022-09-16T07:45:24;37.45;;;3.67;;
65418;SDS011;52027;50.658;14.004;2022-09-16T07:47:49;33.15;;;3.90;;
65418;SDS011;52027;50.658;14.004;2022-09-16T07:50:15;29.65;;;4.32;;
65418;SDS011;52027;50.658;14.004;2022-09-16T07:52:40;25.45;;;3.40;;
65418;SDS011;52027;50.658;14.004;2022-09-16T07:55:05;28.23;;;3.40;;
65418;SDS011;52027;50.658;14.004;2022-09-16T07:57:32;24.17;;;3.33;;
65418;SDS011;52027;50.658;14.004;2022-09-16T08:00:03;19.40;;;2.75;;
65418;SDS011;52027;50.658;14.004;2022-09-16T08:02:28;22.42;;;2.80;;
65418;SDS011;52027;50.658;14.004;2022-09-16T08:04:54;23.63;;;3.40;;
65418;SDS011;52027;50.658;14.004;2022-09-16T08:07:19;22.33;;;3.10;;
65418;SDS011;52027;50.658;14.004;2022-09-16T08:09:45;25.00;;;2.70;;
65418;SDS011;52027;50.658;14.004;2022-09-16T08:12:11;25.55;;;2.95;;
65418;SDS011;52027;50.658;14.004;2022-09-16T08:14:40;22.27;;;2.83;;
65418;SDS011;52027;50.658;14.004;2022-09-16T08:17:05;17.83;;;2.53;;
65418;SDS011;52027;50.658;14.004;2022-09-16T08:19:31;13.10;;;2.58;;
65418;SDS011;52027;50.658;14.004;2022-09-16T08:21:56;17.30;;;2.50;;
65418;SDS011;52027;50.658;14.004;2022-09-16T08:24:22;18.63;;;3.10;;
65418;SDS011;52027;50.658;14.004;2022-09-16T08:26:47;21.83;;;2.70;;
65418;SDS011;52027;50.658;14.004;2022-09-16T08:29:12;12.18;;;2.70;;
65418;SDS011;52027;50.658;14.004;2022-09-16T08:31:38;20.02;;;2.55;;
65418;SDS011;52027;50.658;14.004;2022-09-16T08:34:03;16.00;;;2.60;;
65418;SDS011;52027;50.658;14.004;2022-09-16T08:36:29;9.27;;;2.15;;
65418;SDS011;52027;50.658;14.004;2022-09-16T08:38:54;15.30;;;2.35;;
65418;SDS011;52027;50.658;14.004;2022-09-16T08:44:36;16.75;;;2.40;;
65418;SDS011;52027;50.658;14.004;2022-09-16T08:47:27;18.23;;;2.45;;
65418;SDS011;52027;50.658;14.004;2022-09-16T08:49:59;17.55;;;2.80;;
65418;SDS011;52027;50.658;14.004;2022-09-16T08:52:30;16.55;;;2.63;;
65418;SDS011;52027;50.658;14.004;2022-09-16T08:55:02;13.40;;;3.17;;
65418;SDS011;52027;50.658;14.004;2022-09-16T08:57:58;13.87;;;2.47;;
65418;SDS011;52027;50.658;14.004;2022-09-16T09:00:31;7.05;;;1.88;;
65418;SDS011;52027;50.658;14.004;2022-09-16T09:03:01;7.00;;;1.92;;
65418;SDS011;52027;50.658;14.004;2022-09-16T09:05:51;10.55;;;1.80;;
65418;SDS011;52027;50.658;14.004;2022-09-16T09:30:28;10.77;;;1.80;;
65418;SDS011;52027;50.658;14.004;2022-09-16T09:40:47;13.40;;;1.80;;
65418;SDS011;52027;50.658;14.004;2022-09-16T09:43:24;6.35;;;1.52;;
65418;SDS011;52027;50.658;14.004;2022-09-16T09:46:04;9.05;;;1.95;;
65418;SDS011;52027;50.658;14.004;2022-09-16T09:48:42;7.85;;;1.50;;
65418;SDS011;52027;50.658;14.004;2022-09-16T09:51:14;12.55;;;1.63;;
65418;SDS011;52027;50.658;14.004;2022-09-16T09:53:48;10.68;;;1.52;;
65418;SDS011;52027;50.658;14.004;2022-09-16T09:56:18;7.85;;;1.55;;
65418;SDS011;52027;50.658;14.004;2022-09-16T09:59:02;5.97;;;1.60;;
65418;SDS011;52027;50.658;14.004;2022-09-16T10:01:52;10.45;;;1.60;;
65418;SDS011;52027;50.658;14.004;2022-09-16T10:04:19;12.40;;;1.80;;
65418;SDS011;52027;50.658;14.004;2022-09-16T10:06:45;10.43;;;1.73;;
65418;SDS011;52027;50.658;14.004;2022-09-16T10:09:13;10.93;;;1.67;;
65418;SDS011;52027;50.658;14.004;2022-09-16T10:11:47;10.50;;;1.80;;
65418;SDS011;52027;50.658;14.004;2022-09-16T10:16:55;5.07;;;1.40;;
65418;SDS011;52027;50.658;14.004;2022-09-16T10:19:24;7.22;;;1.50;;
65418;SDS011;52027;50.658;14.004;2022-09-16T10:21:53;9.43;;;1.58;;
65418;SDS011;52027;50.658;14.004;2022-09-16T10:27:16;6.43;;;1.60;;
65418;SDS011;52027;50.658;14.004;2022-09-16T10:29:43;6.03;;;1.40;;
65418;SDS011;52027;50.658;14.004;2022-09-16T10:32:11;6.13;;;1.30;;
65418;SDS011;52027;50.658;14.004;2022-09-16T10:34:41;5.65;;;1.30;;
65418;SDS011;52027;50.658;14.004;2022-09-16T10:39:36;6.00;;;1.30;;
65418;SDS011;52027;50.658;14.004;2022-09-16T10:42:04;9.65;;;1.60;;
65418;SDS011;52027;50.658;14.004;2022-09-16T10:44:42;8.68;;;1.63;;
65418;SDS011;52027;50.658;14.004;2022-09-16T10:49:53;7.38;;;1.60;;
65418;SDS011;52027;50.658;14.004;2022-09-16T10:52:21;10.20;;;1.60;;
65418;SDS011;52027;50.658;14.004;2022-09-16T10:54:48;8.98;;;1.60;;
65418;SDS011;52027;50.658;14.004;2022-09-16T11:02:52;7.13;;;1.30;;
65418;SDS011;52027;50.658;14.004;2022-09-16T11:05:49;5.38;;;1.23;;
65418;SDS011;52027;50.658;14.004;2022-09-16T11:17:05;7.13;;;1.55;;
65418;SDS011;52027;50.658;14.004;2022-09-16T11:19:51;6.30;;;1.30;;
65418;SDS011;52027;50.658;14.004;2022-09-16T11:30:44;22.05;;;2.30;;
65418;SDS011;52027;50.658;14.004;2022-09-16T11:41:49;17.15;;;2.78;;
65418;SDS011;52027;50.658;14.004;2022-09-16T11:44:30;19.10;;;2.45;;
65418;SDS011;52027;50.658;14.004;2022-09-16T11:47:17;12.85;;;2.42;;
65418;SDS011;52027;50.658;14.004;2022-09-16T11:58:04;28.60;;;3.03;;
65418;SDS011;52027;50.658;14.004;2022-09-16T12:00:46;20.17;;;2.30;;
65418;SDS011;52027;50.658;14.004;2022-09-16T12:06:08;21.33;;;2.20;;
65418;SDS011;52027;50.658;14.004;2022-09-16T12:11:26;10.50;;;1.80;;
65418;SDS011;52027;50.658;14.004;2022-09-16T12:13:59;10.43;;;2.25;;
65418;SDS011;52027;50.658;14.004;2022-09-16T12:19:12;12.20;;;1.80;;
65418;SDS011;52027;50.658;14.004;2022-09-16T12:21:45;9.32;;;1.58;;
65418;SDS011;52027;50.658;14.004;2022-09-16T12:27:03;8.15;;;1.70;;
65418;SDS011;52027;50.658;14.004;2022-09-16T12:32:18;10.45;;;1.70;;
65418;SDS011;52027;50.658;14.004;2022-09-16T12:34:51;8.75;;;1.80;;
65418;SDS011;52027;50.658;14.004;2022-09-16T12:48:38;8.73;;;1.83;;
65418;SDS011;52027;50.658;14.004;2022-09-16T12:57:06;15.85;;;2.20;;
65418;SDS011;52027;50.658;14.004;2022-09-16T13:04:53;10.60;;;1.70;;
65418;SDS011;52027;50.658;14.004;2022-09-16T13:07:27;19.90;;;2.10;;
65418;SDS011;52027;50.658;14.004;2022-09-16T13:10:02;13.43;;;2.37;;
65418;SDS011;52027;50.658;14.004;2022-09-16T13:12:30;13.98;;;2.00;;
65418;SDS011;52027;50.658;14.004;2022-09-16T13:14:57;20.63;;;2.60;;
65418;SDS011;52027;50.658;14.004;2022-09-16T13:17:29;30.35;;;2.15;;
65418;SDS011;52027;50.658;14.004;2022-09-16T13:20:11;15.68;;;2.08;;
65418;SDS011;52027;50.658;14.004;2022-09-16T13:25:33;16.50;;;2.08;;
65418;SDS011;52027;50.658;14.004;2022-09-16T13:33:37;15.38;;;2.35;;
65418;SDS011;52027;50.658;14.004;2022-09-16T13:41:13;13.13;;;2.20;;
65418;SDS011;52027;50.658;14.004;2022-09-16T13:46:08;13.15;;;2.40;;
65418;SDS011;52027;50.658;14.004;2022-09-16T13:48:43;16.77;;;2.70;;
65418;SDS011;52027;50.658;14.004;2022-09-16T13:51:15;11.40;;;2.13;;
65418;SDS011;52027;50.658;14.004;2022-09-16T13:53:46;11.02;;;2.47;;
65418;SDS011;52027;50.658;14.004;2022-09-16T14:01:38;12.25;;;2.10;;
65418;SDS011;52027;50.658;14.004;2022-09-16T14:12:16;14.75;;;2.70;;
65418;SDS011;52027;50.658;14.004;2022-09-16T14:14:58;11.35;;;2.58;;
65418;SDS011;52027;50.658;14.004;2022-09-16T14:17:25;12.35;;;2.40;;
65418;SDS011;52027;50.658;14.004;2022-09-16T14:19:55;13.00;;;2.47;;
65418;SDS011;52027;50.658;14.004;2022-09-16T14:22:23;15.38;;;2.60;;
65418;SDS011;52027;50.658;14.004;2022-09-16T14:24:51;10.63;;;2.47;;
65418;SDS011;52027;50.658;14.004;2022-09-16T14:32:27;11.27;;;2.78;;
65418;SDS011;52027;50.658;14.004;2022-09-16T14:34:58;11.70;;;2.80;;
65418;SDS011;52027;50.658;14.004;2022-09-16T14:37:27;30.38;;;2.80;;
65418;SDS011;52027;50.658;14.004;2022-09-16T14:39:55;12.48;;;3.00;;
65418;SDS011;52027;50.658;14.004;2022-09-16T14:42:27;10.52;;;2.80;;
65418;SDS011;52027;50.658;14.004;2022-09-16T14:44:54;14.73;;;2.50;;
65418;SDS011;52027;50.658;14.004;2022-09-16T14:47:28;11.73;;;2.50;;
65418;SDS011;52027;50.658;14.004;2022-09-16T14:50:06;10.27;;;2.33;;
65418;SDS011;52027;50.658;14.004;2022-09-16T14:52:36;8.93;;;2.53;;
65418;SDS011;52027;50.658;14.004;2022-09-16T14:55:06;9.93;;;2.65;;
65418;SDS011;52027;50.658;14.004;2022-09-16T14:57:37;8.20;;;2.17;;
65418;SDS011;52027;50.658;14.004;2022-09-16T15:00:03;10.70;;;2.70;;
65418;SDS011;52027;50.658;14.004;2022-09-16T15:03:09;8.23;;;2.38;;
65418;SDS011;52027;50.658;14.004;2022-09-16T15:05:37;10.43;;;2.42;;
65418;SDS011;52027;50.658;14.004;2022-09-16T15:08:09;12.60;;;2.97;;
65418;SDS011;52027;50.658;14.004;2022-09-16T15:10:58;13.40;;;2.38;;
65418;SDS011;52027;50.658;14.004;2022-09-16T15:13:27;11.27;;;2.65;;
65418;SDS011;52027;50.658;14.004;2022-09-16T15:16:00;8.63;;;2.60;;
65418;SDS011;52027;50.658;14.004;2022-09-16T15:18:33;10.00;;;2.80;;
65418;SDS011;52027;50.658;14.004;2022-09-16T15:21:11;10.30;;;2.30;;
65418;SDS011;52027;50.658;14.004;2022-09-16T15:23:47;9.88;;;2.60;;
65418;SDS011;52027;50.658;14.004;2022-09-16T15:26:18;10.55;;;2.60;;
65418;SDS011;52027;50.658;14.004;2022-09-16T15:28:49;8.13;;;2.50;;
65418;SDS011;52027;50.658;14.004;2022-09-16T15:31:35;7.30;;;2.40;;
65418;SDS011;52027;50.658;14.004;2022-09-16T15:34:18;9.93;;;2.40;;
65418;SDS011;52027;50.658;14.004;2022-09-16T15:36:49;7.47;;;2.33;;
65418;SDS011;52027;50.658;14.004;2022-09-16T15:44:36;9.48;;;2.35;;
65418;SDS011;52027;50.658;14.004;2022-09-16T15:47:13;9.80;;;2.55;;
65418;SDS011;52027;50.658;14.004;2022-09-16T15:49:44;7.97;;;2.45;;
65418;SDS011;52027;50.658;14.004;2022-09-16T15:52:13;9.40;;;2.33;;
65418;SDS011;52027;50.658;14.004;2022-09-16T15:57:34;7.00;;;2.50;;
65418;SDS011;52027;50.658;14.004;2022-09-16T16:00:05;7.10;;;2.15;;
65418;SDS011;52027;50.658;14.004;2022-09-16T16:05:22;8.23;;;2.20;;
65418;SDS011;52027;50.658;14.004;2022-09-16T16:07:54;11.88;;;2.10;;
65418;SDS011;52027;50.658;14.004;2022-09-16T16:10:22;11.20;;;2.47;;
65418;SDS011;52027;50.658;14.004;2022-09-16T16:12:54;10.90;;;2.50;;
65418;SDS011;52027;50.658;14.004;2022-09-16T16:15:22;13.10;;;2.38;;
65418;SDS011;52027;50.658;14.004;2022-09-16T16:17:51;10.70;;;2.53;;
65418;SDS011;52027;50.658;14.004;2022-09-16T16:20:18;7.22;;;2.50;;
65418;SDS011;52027;50.658;14.004;2022-09-16T16:22:44;11.38;;;2.55;;
65418;SDS011;52027;50.658;14.004;2022-09-16T16:25:10;11.50;;;2.80;;
65418;SDS011;52027;50.658;14.004;2022-09-16T16:27:37;6.80;;;2.10;;
65418;SDS011;52027;50.658;14.004;2022-09-16T16:30:04;12.07;;;2.72;;
65418;SDS011;52027;50.658;14.004;2022-09-16T16:32:30;8.50;;;2.70;;
65418;SDS011;52027;50.658;14.004;2022-09-16T16:34:56;7.60;;;2.55;;
65418;SDS011;52027;50.658;14.004;2022-09-16T16:37:23;10.90;;;2.70;;
65418;SDS011;52027;50.658;14.004;2022-09-16T16:39:49;11.25;;;3.03;;
65418;SDS011;52027;50.658;14.004;2022-09-16T16:42:15;9.23;;;2.78;;
65418;SDS011;52027;50.658;14.004;2022-09-16T16:44:41;12.27;;;2.80;;
65418;SDS011;52027;50.658;14.004;2022-09-16T16:47:07;10.40;;;2.90;;
65418;SDS011;52027;50.658;14.004;2022-09-16T16:49:33;9.73;;;2.67;;
65418;SDS011;52027;50.658;14.004;2022-09-16T16:51:59;8.43;;;2.70;;
65418;SDS011;52027;50.658;14.004;2022-09-16T16:54:25;10.23;;;2.50;;
65418;SDS011;52027;50.658;14.004;2022-09-16T16:56:51;12.40;;;3.10;;
65418;SDS011;52027;50.658;14.004;2022-09-16T16:59:17;8.52;;;2.70;;
65418;SDS011;52027;50.658;14.004;2022-09-16T17:01:43;7.22;;;2.35;;
65418;SDS011;52027;50.658;14.004;2022-09-16T17:04:10;12.13;;;3.00;;
65418;SDS011;52027;50.658;14.004;2022-09-16T17:06:36;10.55;;;2.67;;
65418;SDS011;52027;50.658;14.004;2022-09-16T17:09:06;7.95;;;2.60;;
65418;SDS011;52027;50.658;14.004;2022-09-16T17:11:33;9.18;;;2.70;;
65418;SDS011;52027;50.658;14.004;2022-09-16T17:14:00;10.32;;;3.08;;
65418;SDS011;52027;50.658;14.004;2022-09-16T17:16:28;9.07;;;2.58;;
65418;SDS011;52027;50.658;14.004;2022-09-16T17:18:54;8.27;;;2.63;;
65418;SDS011;52027;50.658;14.004;2022-09-16T17:23:50;7.88;;;2.50;;
65418;SDS011;52027;50.658;14.004;2022-09-16T17:26:16;8.27;;;2.40;;
65418;SDS011;52027;50.658;14.004;2022-09-16T17:28:43;8.27;;;2.35;;
65418;SDS011;52027;50.658;14.004;2022-09-16T17:31:12;8.52;;;2.60;;
65418;SDS011;52027;50.658;14.004;2022-09-16T17:33:40;12.10;;;2.80;;
65418;SDS011;52027;50.658;14.004;2022-09-16T17:36:06;8.38;;;2.70;;
65418;SDS011;52027;50.658;14.004;2022-09-16T17:38:32;9.63;;;2.65;;
65418;SDS011;52027;50.658;14.004;2022-09-16T17:40:59;9.48;;;2.60;;
65418;SDS011;52027;50.658;14.004;2022-09-16T17:43:32;10.48;;;2.70;;
65418;SDS011;52027;50.658;14.004;2022-09-16T17:46:02;10.68;;;2.75;;
65418;SDS011;52027;50.658;14.004;2022-09-16T17:48:29;7.93;;;2.50;;
65418;SDS011;52027;50.658;14.004;2022-09-16T17:50:55;6.05;;;2.30;;
65418;SDS011;52027;50.658;14.004;2022-09-16T17:53:20;9.13;;;2.50;;
65418;SDS011;52027;50.658;14.004;2022-09-16T17:55:46;8.70;;;2.40;;
65418;SDS011;52027;50.658;14.004;2022-09-16T17:58:12;10.75;;;2.40;;
65418;SDS011;52027;50.658;14.004;2022-09-16T18:00:39;9.35;;;2.63;;
65418;SDS011;52027;50.658;14.004;2022-09-16T18:03:05;9.10;;;2.55;;
65418;SDS011;52027;50.658;14.004;2022-09-16T18:05:34;10.02;;;2.65;;
65418;SDS011;52027;50.658;14.004;2022-09-16T18:08:00;7.93;;;2.20;;
65418;SDS011;52027;50.658;14.004;2022-09-16T18:10:26;7.22;;;2.58;;
65418;SDS011;52027;50.658;14.004;2022-09-16T18:12:52;9.45;;;2.50;;
65418;SDS011;52027;50.658;14.004;2022-09-16T18:15:17;7.65;;;2.78;;
65418;SDS011;52027;50.658;14.004;2022-09-16T18:17:43;6.07;;;2.25;;
65418;SDS011;52027;50.658;14.004;2022-09-16T18:20:08;7.22;;;2.42;;
65418;SDS011;52027;50.658;14.004;2022-09-16T18:22:34;9.80;;;2.60;;
65418;SDS011;52027;50.658;14.004;2022-09-16T18:25:00;8.15;;;2.70;;
65418;SDS011;52027;50.658;14.004;2022-09-16T18:27:25;6.70;;;2.38;;